Time;durP1;ratioP1;P1;durP2;ratioP2;P2;SDS_P1;SDS_P2;PMS_P1;PMS_P2;Temp;Humidity;BMP_temperature;BMP_pressure;BME280_temperature;BME280_humidity;BME280_pressure;Samples;Min_cycle;Max_cycle;Signal;HPM_P1;HPM_P2
2023/03/10 00:00:46;;;;;;;;;;;8.19;5.97;;;;;;2674116;76;20366;-92
2023/03/10 00:04:25;;;;;;;;;;;8.22;5.90;;;;;;2674475;76;20319;-93
2023/03/10 00:07:55;;;;;;;;;;;8.23;5.83;;;;;;2673594;76;20329;-92
2023/03/10 00:11:28;;;;;;;;;;;8.18;5.71;;;;;;2674223;76;20348;-92
2023/03/10 00:18:26;;;;;;;;;;;8.02;5.44;;;;;;2673317;76;20352;-93
2023/03/10 00:21:54;;;;;;;;;;;7.86;5.25;;;;;;2672741;76;20332;-92
2023/03/10 00:25:25;;;;;;;;;;;7.78;5.26;;;;;;2672951;76;20334;-93
2023/03/10 00:28:53;;;;;;;;;;;7.68;4.97;;;;;;2672635;76;20329;-92
2023/03/10 00:32:21;;;;;;;;;;;7.62;4.97;;;;;;2672928;76;20684;-92
2023/03/10 00:35:50;;;;;;;;;;;7.53;4.85;;;;;;2673953;76;20324;-92
2023/03/10 00:39:18;;;;;;;;;;;7.45;4.76;;;;;;2673446;76;20760;-92
2023/03/10 00:42:46;;;;;;;;;;;7.46;4.83;;;;;;2673449;76;20334;-92
2023/03/10 00:46:14;;;;;;;;;;;7.45;4.74;;;;;;2674438;76;20314;-92
2023/03/10 00:49:42;;;;;;;;;;;7.52;4.96;;;;;;2673655;76;20352;-92
2023/03/10 00:53:10;;;;;;;;;;;7.59;5.16;;;;;;2674125;76;20352;-92
2023/03/10 00:56:38;;;;;;;;;;;7.61;5.11;;;;;;2673959;76;20334;-92
2023/03/10 01:00:07;;;;;;;;;;;7.64;5.04;;;;;;2673925;76;20316;-92
2023/03/10 01:03:35;;;;;;;;;;;7.64;4.96;;;;;;2674516;76;20320;-92
2023/03/10 01:07:03;;;;;;;;;;;7.61;4.83;;;;;;2673787;76;20390;-92
2023/03/10 01:10:31;;;;;;;;;;;7.58;4.83;;;;;;2673870;76;20336;-92
2023/03/10 01:13:59;;;;;;;;;;;7.64;5.08;;;;;;2674806;76;20336;-92
2023/03/10 01:17:30;;;;;;;;;;;7.64;5.02;;;;;;2674122;76;20339;-92
2023/03/10 01:21:00;;;;;;;;;;;7.64;4.99;;;;;;2673887;76;20669;-92
2023/03/10 01:24:28;;;;;;;;;;;7.62;4.60;;;;;;2675159;76;20338;-92
2023/03/10 01:27:56;;;;;;;;;;;7.63;4.86;;;;;;2675543;76;20429;-91
2023/03/10 01:31:24;;;;;;;;;;;7.63;4.87;;;;;;2673545;76;20327;-92
2023/03/10 01:34:52;;;;;;;;;;;7.60;4.85;;;;;;2673859;76;20375;-92
2023/03/10 01:38:21;;;;;;;;;;;7.59;4.88;;;;;;2673879;76;20360;-92
2023/03/10 01:41:49;;;;;;;;;;;7.57;4.80;;;;;;2673726;76;20347;-91
2023/03/10 01:45:17;;;;;;;;;;;7.52;4.72;;;;;;2673981;76;20344;-92
2023/03/10 01:48:45;;;;;;;;;;;7.45;4.58;;;;;;2674746;76;20334;-93
2023/03/10 01:52:15;;;;;;;;;;;7.45;4.61;;;;;;2675072;76;20333;-93
2023/03/10 01:55:43;;;;;;;;;;;7.41;4.51;;;;;;2674751;76;20341;-93
2023/03/10 01:59:11;;;;;;;;;;;7.38;4.41;;;;;;2674398;76;20787;-93
2023/03/10 02:02:39;;;;;;;;;;;7.35;4.44;;;;;;2674959;76;20359;-93
2023/03/10 02:06:07;;;;;;;;;;;7.37;4.51;;;;;;2674947;76;20337;-93
2023/03/10 02:09:35;;;;;;;;;;;7.40;4.57;;;;;;2674664;76;20335;-93
2023/03/10 02:13:03;;;;;;;;;;;7.46;4.60;;;;;;2674904;76;20312;-93
2023/03/10 02:16:31;;;;;;;;;;;7.53;4.68;;;;;;2674156;76;20342;-92
2023/03/10 02:20:00;;;;;;;;;;;7.57;4.76;;;;;;2674737;76;20318;-92
2023/03/10 02:23:28;;;;;;;;;;;7.58;4.67;;;;;;2674745;76;20316;-93
2023/03/10 02:26:56;;;;;;;;;;;7.56;4.74;;;;;;2674533;76;20312;-93
2023/03/10 02:30:27;;;;;;;;;;;7.50;4.70;;;;;;2674219;76;20357;-93
2023/03/10 02:33:56;;;;;;;;;;;7.53;4.83;;;;;;2674486;76;20297;-93
2023/03/10 02:37:24;;;;;;;;;;;7.60;4.91;;;;;;2674713;76;20329;-93
2023/03/10 02:40:53;;;;;;;;;;;7.64;4.88;;;;;;2674545;76;20370;-93
2023/03/10 02:44:21;;;;;;;;;;;7.69;4.90;;;;;;2674862;76;20773;-93
2023/03/10 02:47:49;;;;;;;;;;;7.67;4.99;;;;;;2674225;76;20386;-93
2023/03/10 02:51:23;;;;;;;;;;;7.59;5.10;;;;;;2674415;76;20334;-93
2023/03/10 02:54:48;;;;;;;;;;;7.56;5.18;;;;;;2674597;76;20310;-92
2023/03/10 02:58:16;;;;;;;;;;;7.55;5.16;;;;;;2674241;76;20377;-93
2023/03/10 03:01:47;;;;;;;;;;;7.57;5.27;;;;;;2674434;76;20317;-93
2023/03/10 03:05:15;;;;;;;;;;;7.61;5.18;;;;;;2673701;76;20310;-93
2023/03/10 03:08:43;;;;;;;;;;;7.67;5.36;;;;;;2673919;76;20355;-93
2023/03/10 03:12:11;;;;;;;;;;;7.75;5.22;;;;;;2674437;76;20375;-92
2023/03/10 03:15:39;;;;;;;;;;;7.81;5.31;;;;;;2674340;76;20316;-92
2023/03/10 03:19:08;;;;;;;;;;;7.90;5.12;;;;;;2674535;76;20317;-92
2023/03/10 03:22:36;;;;;;;;;;;8.01;5.25;;;;;;2676735;76;20299;-92
2023/03/10 03:26:04;;;;;;;;;;;8.06;5.09;;;;;;2674575;76;20665;-92
2023/03/10 03:29:32;;;;;;;;;;;8.14;5.26;;;;;;2673890;76;20842;-92
2023/03/10 03:33:00;;;;;;;;;;;8.20;5.16;;;;;;2674613;76;20331;-92
2023/03/10 03:36:28;;;;;;;;;;;8.03;3.09;;;;;;2673801;76;20372;-92
2023/03/10 03:39:56;;;;;;;;;;;8.14;3.92;;;;;;2673791;76;20319;-93
2023/03/10 03:43:26;;;;;;;;;;;8.16;4.06;;;;;;2674600;76;20745;-93
2023/03/10 03:46:59;;;;;;;;;;;7.69;2.54;;;;;;2673961;76;20653;-92
2023/03/10 03:50:24;;;;;;;;;;;7.84;3.25;;;;;;2674025;76;20773;-93
2023/03/10 03:53:52;;;;;;;;;;;7.92;3.55;;;;;;2674310;76;20340;-92
2023/03/10 03:57:23;;;;;;;;;;;7.99;3.63;;;;;;2674092;76;20349;-93
2023/03/10 04:00:51;;;;;;;;;;;7.98;3.48;;;;;;2673537;76;20334;-93
2023/03/10 04:04:19;;;;;;;;;;;7.99;3.64;;;;;;2674667;76;20356;-93
2023/03/10 04:07:48;;;;;;;;;;;8.03;3.83;;;;;;2674371;76;20761;-93
2023/03/10 04:11:18;;;;;;;;;;;8.06;3.98;;;;;;2674942;76;20338;-93
2023/03/10 04:14:47;;;;;;;;;;;8.08;4.11;;;;;;2675583;76;20340;-93
2023/03/10 04:18:17;;;;;;;;;;;8.08;4.14;;;;;;2674457;76;20295;-93
2023/03/10 04:21:45;;;;;;;;;;;8.05;4.33;;;;;;2674789;76;20344;-93
2023/03/10 04:25:13;;;;;;;;;;;8.06;4.36;;;;;;2674686;76;20317;-93
2023/03/10 04:28:41;;;;;;;;;;;8.06;4.43;;;;;;2673963;76;20658;-93
2023/03/10 04:32:09;;;;;;;;;;;8.09;4.35;;;;;;2673692;76;20658;-93
2023/03/10 04:35:37;;;;;;;;;;;8.14;4.35;;;;;;2674862;76;20758;-93
2023/03/10 04:39:06;;;;;;;;;;;8.15;4.43;;;;;;2674418;76;20749;-93
2023/03/10 04:42:34;;;;;;;;;;;8.20;4.43;;;;;;2674161;76;20336;-93
2023/03/10 04:46:02;;;;;;;;;;;8.26;4.54;;;;;;2674478;76;20376;-93
2023/03/10 04:49:30;;;;;;;;;;;8.29;4.57;;;;;;2674520;76;20308;-93
2023/03/10 04:52:58;;;;;;;;;;;8.30;4.67;;;;;;2674383;76;20329;-93
2023/03/10 04:56:26;;;;;;;;;;;8.36;4.68;;;;;;2674859;76;20366;-93
2023/03/10 04:59:54;;;;;;;;;;;8.62;4.58;;;;;;2673966;76;20373;-94
2023/03/10 05:03:22;;;;;;;;;;;8.81;4.19;;;;;;2674888;76;20344;-93
2023/03/10 05:06:51;;;;;;;;;;;8.96;3.93;;;;;;2675312;76;20308;-93
2023/03/10 05:10:19;;;;;;;;;;;9.20;4.11;;;;;;2675241;76;20344;-93
2023/03/10 05:13:47;;;;;;;;;;;9.27;3.53;;;;;;2675896;76;20320;-93
2023/03/10 05:17:15;;;;;;;;;;;9.42;3.72;;;;;;2677096;76;20345;-92
2023/03/10 05:20:49;;;;;;;;;;;9.47;3.38;;;;;;2674967;76;20339;-94
2023/03/10 05:24:14;;;;;;;;;;;9.41;2.91;;;;;;2675223;76;20332;-93
2023/03/10 05:27:42;;;;;;;;;;;9.45;2.55;;;;;;2674793;76;20836;-93
2023/03/10 05:31:10;;;;;;;;;;;9.38;2.29;;;;;;2674919;76;20323;-94
2023/03/10 05:34:38;;;;;;;;;;;9.52;2.64;;;;;;2675868;76;20351;-94
2023/03/10 05:38:06;;;;;;;;;;;9.59;2.80;;;;;;2674139;76;20316;-94
2023/03/10 05:41:34;;;;;;;;;;;9.49;2.24;;;;;;2672981;76;20818;-93
2023/03/10 05:45:04;;;;;;;;;;;9.52;2.42;;;;;;2672117;76;20828;-93
2023/03/10 05:48:32;;;;;;;;;;;9.60;2.80;;;;;;2673456;76;20353;-92
2023/03/10 05:52:03;;;;;;;;;;;9.67;3.03;;;;;;2672809;76;20340;-92
2023/03/10 05:55:31;;;;;;;;;;;9.71;3.30;;;;;;2672934;76;20348;-93
2023/03/10 05:58:59;;;;;;;;;;;9.77;3.52;;;;;;2671642;76;20326;-91
2023/03/10 06:02:27;;;;;;;;;;;9.81;3.83;;;;;;2668492;76;20420;-92
2023/03/10 06:05:56;;;;;;;;;;;9.81;4.03;;;;;;2669177;76;20372;-92
2023/03/10 06:09:24;;;;;;;;;;;9.79;3.99;;;;;;2670808;76;20368;-92
2023/03/10 06:12:54;;;;;;;;;;;9.91;4.27;;;;;;2670623;76;20349;-92
2023/03/10 06:16:22;;;;;;;;;;;9.98;4.44;;;;;;2671573;76;20327;-93
2023/03/10 06:19:51;;;;;;;;;;;10.06;4.51;;;;;;2671933;76;21023;-92
2023/03/10 06:23:19;;;;;;;;;;;10.07;4.57;;;;;;2671289;76;20382;-91
2023/03/10 06:26:52;;;;;;;;;;;10.18;4.75;;;;;;2672200;76;20334;-91
2023/03/10 06:30:17;;;;;;;;;;;10.21;4.60;;;;;;2672578;76;20336;-93
2023/03/10 06:33:45;;;;;;;;;;;10.20;4.54;;;;;;2671472;76;20329;-92
2023/03/10 06:37:14;;;;;;;;;;;10.21;4.73;;;;;;2671773;76;20307;-94
2023/03/10 06:40:42;;;;;;;;;;;10.29;4.96;;;;;;2672515;76;20842;-92
2023/03/10 06:44:17;;;;;;;;;;;10.39;4.95;;;;;;2671442;76;20350;-94
2023/03/10 06:47:40;;;;;;;;;;;10.45;5.02;;;;;;2671517;76;20329;-93
2023/03/10 06:51:08;;;;;;;;;;;10.62;5.03;;;;;;2673307;76;20328;-93
2023/03/10 06:54:36;;;;;;;;;;;10.79;5.00;;;;;;2672401;76;20332;-92
2023/03/10 06:58:04;;;;;;;;;;;10.99;4.96;;;;;;2671881;76;20326;-93
2023/03/10 07:01:32;;;;;;;;;;;11.22;4.98;;;;;;2672452;76;20337;-93
2023/03/10 07:05:00;;;;;;;;;;;11.52;4.85;;;;;;2670316;76;20334;-93
2023/03/10 07:08:29;;;;;;;;;;;11.79;4.56;;;;;;2670888;76;20362;-91
2023/03/10 07:11:57;;;;;;;;;;;12.05;4.48;;;;;;2671902;76;20311;-92
2023/03/10 07:15:25;;;;;;;;;;;12.27;4.00;;;;;;2672131;76;20293;-91
2023/03/10 07:18:53;;;;;;;;;;;12.50;4.15;;;;;;2670674;76;20766;-91
2023/03/10 07:22:21;;;;;;;;;;;12.69;4.01;;;;;;2672322;76;20343;-92
2023/03/10 07:25:49;;;;;;;;;;;12.80;3.62;;;;;;2671325;76;20377;-92
2023/03/10 07:29:17;;;;;;;;;;;12.89;3.63;;;;;;2672592;76;20315;-92
2023/03/10 07:32:45;;;;;;;;;;;13.02;3.35;;;;;;2672593;76;20371;-92
2023/03/10 07:36:13;;;;;;;;;;;13.14;3.60;;;;;;2672298;76;20363;-91
2023/03/10 07:39:42;;;;;;;;;;;13.24;3.24;;;;;;2672041;76;20353;-92
2023/03/10 07:43:10;;;;;;;;;;;13.36;3.03;;;;;;2672146;76;20321;-91
2023/03/10 07:50:11;;;;;;;;;;;13.83;3.18;;;;;;2671762;76;20325;-90
2023/03/10 07:53:39;;;;;;;;;;;13.98;2.67;;;;;;2671889;76;20332;-90
2023/03/10 07:57:07;;;;;;;;;;;14.14;2.49;;;;;;2672639;76;20774;-90
2023/03/10 08:00:35;;;;;;;;;;;14.35;2.37;;;;;;2672206;76;20406;-91
2023/03/10 08:04:11;;;;;;;;;;;14.40;1.95;;;;;;2672933;76;20432;-90
2023/03/10 08:07:42;;;;;;;;;;;14.53;1.64;;;;;;2671559;76;20358;-91
2023/03/10 08:11:13;;;;;;;;;;;14.69;1.50;;;;;;2672194;76;20371;-90
2023/03/10 08:14:41;;;;;;;;;;;14.74;1.12;;;;;;2672555;76;20360;-89
2023/03/10 08:18:12;;;;;;;;;;;14.93;0.99;;;;;;2672906;76;20311;-90
2023/03/10 08:21:42;;;;;;;;;;;15.01;0.16;;;;;;2672023;76;20333;-91
2023/03/10 08:25:13;;;;;;;;;;;14.88;-0.75;;;;;;2672642;76;20348;-90
2023/03/10 08:28:41;;;;;;;;;;;14.83;-0.48;;;;;;2670791;76;20349;-91
2023/03/10 08:32:15;;;;;;;;;;;14.82;-0.62;;;;;;2673048;76;20368;-91
2023/03/10 08:35:43;;;;;;;;;;;14.78;-1.25;;;;;;2673350;76;20348;-90
2023/03/10 08:39:11;;;;;;;;;;;14.71;-1.53;;;;;;2671695;76;20386;-90
2023/03/10 08:42:53;;;;;;;;;;;;;;;;;;;;;
2023/03/10 08:46:18;;;;;;;;;;;14.59;-1.17;;;;;;2671964;76;20339;-91
2023/03/10 08:49:47;;;;;;;;;;;14.64;-1.49;;;;;;2673219;76;20354;-90
2023/03/10 08:53:15;;;;;;;;;;;14.71;-1.36;;;;;;2673743;76;20422;-90
2023/03/10 08:56:43;;;;;;;;;;;14.82;-1.25;;;;;;2673149;76;20318;-91
2023/03/10 09:00:11;;;;;;;;;;;14.93;-1.19;;;;;;2674213;76;20341;-90
2023/03/10 09:03:39;;;;;;;;;;;15.04;-1.83;;;;;;2674883;76;20314;-90
2023/03/10 09:07:07;;;;;;;;;;;15.18;-1.60;;;;;;2674261;76;20322;-91
2023/03/10 09:10:36;;;;;;;;;;;15.15;-3.22;;;;;;2674964;76;20350;-90
2023/03/10 09:14:04;;;;;;;;;;;15.22;-2.64;;;;;;2674665;76;20341;-90
2023/03/10 09:17:33;;;;;;;;;;;15.33;-3.57;;;;;;2672398;76;20362;-89
2023/03/10 09:21:01;;;;;;;;;;;15.45;-4.73;;;;;;2673787;76;20361;-91
2023/03/10 09:24:29;;;;;;;;;;;15.66;-5.18;;;;;;2675086;76;20312;-90
2023/03/10 09:27:57;;;;;;;;;;;15.83;118.01;;;;;;2674439;76;20341;-90
2023/03/10 09:31:25;;;;;;;;;;;15.85;117.17;;;;;;2674431;76;20357;-90
2023/03/10 09:34:53;;;;;;;;;;;16.10;115.71;;;;;;2674698;76;20334;-90
2023/03/10 09:38:21;;;;;;;;;;;16.61;114.99;;;;;;2674227;76;20662;-90
2023/03/10 09:41:49;;;;;;;;;;;16.61;113.28;;;;;;2673977;76;20372;-90
2023/03/10 09:45:18;;;;;;;;;;;16.16;111.49;;;;;;2674160;76;20349;-91
2023/03/10 09:48:46;;;;;;;;;;;15.54;110.54;;;;;;2674327;76;20352;-90
2023/03/10 09:52:14;;;;;;;;;;;15.08;110.48;;;;;;2674393;76;20766;-91
2023/03/10 09:55:47;;;;;;;;;;;15.01;110.63;;;;;;2673846;76;20371;-90
2023/03/10 09:59:12;;;;;;;;;;;15.24;111.29;;;;;;2673948;76;20370;-90
2023/03/10 10:02:43;;;;;;;;;;;14.93;111.75;;;;;;2674456;76;20811;-91
2023/03/10 10:06:11;;;;;;;;;;;14.48;113.25;;;;;;2673861;76;20695;-90
2023/03/10 10:09:42;;;;;;;;;;;13.67;117.11;;;;;;2673733;76;20332;-90
2023/03/10 10:13:08;;;;;;;;;;;12.69;-3.47;;;;;;2673888;76;20320;-90
2023/03/10 10:16:37;;;;;;;;;;;11.88;3.95;;;;;;2674552;76;20324;-90
2023/03/10 10:20:07;;;;;;;;;;;11.68;5.88;;;;;;2673773;76;20328;-89
2023/03/10 10:23:37;;;;;;;;;;;11.30;6.01;;;;;;2674141;76;20341;-90
2023/03/10 10:27:06;;;;;;;;;;;11.45;5.03;;;;;;2673155;76;20425;-90
2023/03/10 10:30:34;;;;;;;;;;;11.14;2.81;;;;;;2674383;76;20341;-90
2023/03/10 10:34:07;;;;;;;;;;;11.30;2.39;;;;;;2673729;76;20315;-91
2023/03/10 10:37:32;;;;;;;;;;;11.38;2.16;;;;;;2672965;76;20320;-91
2023/03/10 10:41:00;;;;;;;;;;;10.88;3.56;;;;;;2674603;76;20431;-91
2023/03/10 10:44:29;;;;;;;;;;;10.58;6.10;;;;;;2674608;76;20310;-90
2023/03/10 10:47:57;;;;;;;;;;;10.38;6.91;;;;;;2675238;76;20322;-90
2023/03/10 10:51:28;;;;;;;;;;;10.20;9.11;;;;;;2675852;76;20372;-90
2023/03/10 10:54:57;;;;;;;;;;;10.29;9.39;;;;;;2673687;76;20364;-91
2023/03/10 10:58:26;;;;;;;;;;;10.65;9.37;;;;;;2674096;76;20390;-91
2023/03/10 11:01:56;;;;;;;;;;;11.19;8.14;;;;;;2674370;76;20312;-91
2023/03/10 11:05:24;;;;;;;;;;;12.01;5.96;;;;;;2673674;76;20308;-90
2023/03/10 11:08:52;;;;;;;;;;;12.38;3.40;;;;;;2673328;76;20352;-90
2023/03/10 11:12:20;;;;;;;;;;;13.06;1.61;;;;;;2674002;76;20352;-91
2023/03/10 11:15:48;;;;;;;;;;;13.21;-0.16;;;;;;2673345;76;20314;-91
2023/03/10 11:19:17;;;;;;;;;;;13.02;-1.26;;;;;;2673863;76;20864;-91
2023/03/10 11:22:45;;;;;;;;;;;12.96;-1.69;;;;;;2673771;76;20352;-90
2023/03/10 11:26:13;;;;;;;;;;;12.67;-1.87;;;;;;2673716;76;20332;-91
2023/03/10 11:29:41;;;;;;;;;;;12.45;-1.11;;;;;;2673158;76;20307;-91
2023/03/10 11:33:09;;;;;;;;;;;12.25;-0.49;;;;;;2674334;76;20311;-91
2023/03/10 11:36:37;;;;;;;;;;;11.97;-0.45;;;;;;2674044;76;20312;-91
2023/03/10 11:40:17;;;;;;;;;;;12.15;-0.54;;;;;;2672188;76;20488;-90
2023/03/10 11:43:48;;;;;;;;;;;12.15;-1.27;;;;;;2672285;75;20456;-91
2023/03/10 11:47:19;;;;;;;;;;;12.12;-2.32;;;;;;2672419;76;20884;-91
2023/03/10 11:50:47;;;;;;;;;;;12.34;-2.96;;;;;;2671745;76;20455;-91
2023/03/10 11:54:15;;;;;;;;;;;13.02;-3.23;;;;;;2672412;75;20472;-91
2023/03/10 11:57:43;;;;;;;;;;;13.21;-4.79;;;;;;2672765;76;20433;-90
2023/03/10 12:01:12;;;;;;;;;;;13.39;-5.14;;;;;;2671715;76;20447;-91
2023/03/10 12:04:45;;;;;;;;;;;13.67;117.92;;;;;;2671681;76;20439;-90
2023/03/10 12:08:15;;;;;;;;;;;13.92;116.78;;;;;;2670875;75;20898;-92
2023/03/10 12:11:46;;;;;;;;;;;13.94;115.22;;;;;;2670380;76;20468;-91
2023/03/10 12:15:19;;;;;;;;;;;13.74;114.01;;;;;;2671585;76;20425;-92
2023/03/10 12:18:47;;;;;;;;;;;13.68;113.82;;;;;;2672008;76;20481;-92
2023/03/10 12:22:16;;;;;;;;;;;14.08;114.23;;;;;;2669846;76;21167;-92
2023/03/10 12:25:44;;;;;;;;;;;14.28;113.54;;;;;;2671389;76;20530;-91
2023/03/10 12:29:15;;;;;;;;;;;14.83;112.84;;;;;;2671624;76;20525;-91
2023/03/10 12:32:42;;;;;;;;;;;15.24;112.23;;;;;;2673273;76;20439;-90
2023/03/10 12:36:14;;;;;;;;;;;15.81;111.29;;;;;;2668593;76;20453;-92
2023/03/10 12:39:48;;;;;;;;;;;15.88;109.37;;;;;;2668536;76;20468;-92
2023/03/10 12:43:16;;;;;;;;;;;15.87;109.22;;;;;;2671577;76;20469;-91
2023/03/10 12:46:44;;;;;;;;;;;15.25;109.36;;;;;;2672701;75;20428;-91
2023/03/10 12:50:12;;;;;;;;;;;15.27;108.94;;;;;;2669190;76;20425;-91
2023/03/10 12:53:40;;;;;;;;;;;15.41;109.26;;;;;;2666348;76;20461;-91
2023/03/10 12:57:08;;;;;;;;;;;15.01;108.32;;;;;;2667114;76;20486;-91
2023/03/10 13:00:37;;;;;;;;;;;15.21;109.46;;;;;;2669218;76;20344;-90
2023/03/10 13:04:05;;;;;;;;;;;15.58;109.36;;;;;;2667490;76;20953;-91
2023/03/10 13:07:33;;;;;;;;;;;15.49;109.01;;;;;;2667996;76;20503;-91
2023/03/10 13:11:06;;;;;;;;;;;15.41;108.68;;;;;;2667033;76;20489;-91
2023/03/10 13:14:35;;;;;;;;;;;14.82;109.22;;;;;;2668685;76;20472;-90
2023/03/10 13:18:03;;;;;;;;;;;14.85;109.53;;;;;;2667951;76;20456;-91
2023/03/10 13:21:34;;;;;;;;;;;15.41;110.33;;;;;;2667710;76;20509;-91
2023/03/10 13:25:04;;;;;;;;;;;14.88;109.91;;;;;;2668486;76;20503;-91
2023/03/10 13:28:37;;;;;;;;;;;14.28;110.10;;;;;;2669390;76;20438;-91
2023/03/10 13:32:06;;;;;;;;;;;14.47;111.98;;;;;;2667876;76;20477;-91
2023/03/10 13:35:45;;;;;;;;;;;14.08;111.67;;;;;;2669883;76;21013;-90
2023/03/10 13:39:20;;;;;;;;;;;;;;;;;;;;;
2023/03/10 13:42:57;;;;;;;;;;;13.97;113.17;;;;;;2668968;76;20806;-89
2023/03/10 13:46:26;;;;;;;;;;;13.83;113.20;;;;;;2667010;76;21086;-87
2023/03/10 13:49:54;;;;;;;;;;;13.58;113.66;;;;;;2668258;76;20417;-87
2023/03/10 13:53:23;;;;;;;;;;;13.30;113.91;;;;;;2668886;76;20437;-87
2023/03/10 13:56:56;;;;;;;;;;;13.37;114.66;;;;;;2668303;76;20478;-86
2023/03/10 14:00:21;;;;;;;;;;;13.24;114.30;;;;;;2667962;76;20438;-87
2023/03/10 14:03:49;;;;;;;;;;;13.11;115.09;;;;;;2668727;76;20453;-86
2023/03/10 14:07:17;;;;;;;;;;;13.18;115.53;;;;;;2668869;76;20427;-87
2023/03/10 14:10:45;;;;;;;;;;;13.29;115.24;;;;;;2669024;76;20411;-87
2023/03/10 14:14:13;;;;;;;;;;;13.40;115.09;;;;;;2668963;76;20421;-87
2023/03/10 14:17:42;;;;;;;;;;;13.21;116.00;;;;;;2668802;76;20434;-87
2023/03/10 14:21:13;;;;;;;;;;;13.21;117.09;;;;;;2669569;76;20780;-88
2023/03/10 14:24:41;;;;;;;;;;;13.21;117.43;;;;;;2669716;76;20408;-87
2023/03/10 14:28:09;;;;;;;;;;;12.93;117.21;;;;;;2668336;76;20462;-87
2023/03/10 14:31:37;;;;;;;;;;;12.80;117.43;;;;;;2667723;76;20421;-87
2023/03/10 14:35:05;;;;;;;;;;;12.69;117.31;;;;;;2668957;76;20417;-87
2023/03/10 14:38:34;;;;;;;;;;;13.19;117.44;;;;;;2669250;76;20897;-87
2023/03/10 14:42:02;;;;;;;;;;;13.43;116.09;;;;;;2668435;76;20883;-87
2023/03/10 14:45:30;;;;;;;;;;;13.77;115.62;;;;;;2668999;76;20458;-87
2023/03/10 14:48:58;;;;;;;;;;;14.10;115.06;;;;;;2668478;76;20455;-87
2023/03/10 14:52:26;;;;;;;;;;;14.53;114.59;;;;;;2668510;76;20956;-87
2023/03/10 14:55:54;;;;;;;;;;;13.69;113.81;;;;;;2668479;76;20476;-87
2023/03/10 14:59:22;;;;;;;;;;;13.40;115.01;;;;;;2667270;76;20454;-87
2023/03/10 15:02:50;;;;;;;;;;;13.07;115.94;;;;;;2667819;76;20732;-87
2023/03/10 15:06:18;;;;;;;;;;;12.84;117.66;;;;;;2669030;76;20446;-87
2023/03/10 15:09:46;;;;;;;;;;;12.70;-5.93;;;;;;2668303;76;20451;-87
2023/03/10 15:13:15;;;;;;;;;;;12.50;-5.18;;;;;;2667767;76;20418;-87
2023/03/10 15:16:43;;;;;;;;;;;11.94;-3.17;;;;;;2668802;76;20439;-87
2023/03/10 15:20:11;;;;;;;;;;;12.12;-2.17;;;;;;2668534;76;20434;-87
2023/03/10 15:23:39;;;;;;;;;;;12.12;-2.81;;;;;;2668708;76;20413;-86
2023/03/10 15:27:07;;;;;;;;;;;12.38;-3.52;;;;;;2668326;76;20436;-87
2023/03/10 15:30:35;;;;;;;;;;;12.08;-3.69;;;;;;2667096;76;20948;-86
2023/03/10 15:34:04;;;;;;;;;;;11.76;-2.64;;;;;;2668981;76;20978;-87
2023/03/10 15:37:32;;;;;;;;;;;11.44;-2.05;;;;;;2669743;76;20430;-87
2023/03/10 15:41:00;;;;;;;;;;;11.07;0.54;;;;;;2669194;76;20440;-88
2023/03/10 15:44:28;;;;;;;;;;;10.87;2.16;;;;;;2667446;76;20428;-89
2023/03/10 15:47:56;;;;;;;;;;;10.73;2.81;;;;;;2668253;76;20437;-88
2023/03/10 15:51:24;;;;;;;;;;;10.88;2.68;;;;;;2668462;76;20779;-88
2023/03/10 15:54:52;;;;;;;;;;;10.90;3.19;;;;;;2667603;76;20482;-89
2023/03/10 15:58:20;;;;;;;;;;;10.56;4.54;;;;;;2668465;76;20467;-87
2023/03/10 16:01:49;;;;;;;;;;;9.99;7.69;;;;;;2666706;76;20431;-87
2023/03/10 16:05:17;;;;;;;;;;;9.46;11.73;;;;;;2668543;76;20944;-86
2023/03/10 16:08:45;;;;;;;;;;;9.25;15.26;;;;;;2667277;76;20906;-87
2023/03/10 16:12:13;;;;;;;;;;;8.91;16.67;;;;;;2666409;76;21411;-89
2023/03/10 16:15:41;;;;;;;;;;;8.83;18.44;;;;;;2669393;76;20432;-88
2023/03/10 16:19:09;;;;;;;;;;;8.75;19.12;;;;;;2668928;76;20444;-89
2023/03/10 16:22:39;;;;;;;;;;;8.85;19.58;;;;;;2667974;76;20470;-88
2023/03/10 16:26:07;;;;;;;;;;;8.87;19.67;;;;;;2667638;76;21109;-89
2023/03/10 16:29:36;;;;;;;;;;;8.81;19.47;;;;;;2669120;76;20426;-88
2023/03/10 16:33:04;;;;;;;;;;;8.74;19.02;;;;;;2669676;76;20429;-88
2023/03/10 16:36:35;;;;;;;;;;;8.65;18.31;;;;;;2670050;76;20428;-89
2023/03/10 16:40:04;;;;;;;;;;;8.71;17.18;;;;;;2668445;76;20423;-89
2023/03/10 16:43:32;;;;;;;;;;;8.77;16.29;;;;;;2669558;76;20417;-91
2023/03/10 16:47:03;;;;;;;;;;;8.77;15.16;;;;;;2670221;76;20773;-91
2023/03/10 16:50:34;;;;;;;;;;;8.88;13.90;;;;;;2668583;76;20994;-88
2023/03/10 16:54:02;;;;;;;;;;;8.92;13.42;;;;;;2668570;76;20307;-90
2023/03/10 16:57:30;;;;;;;;;;;8.97;12.72;;;;;;2668535;76;20440;-91
2023/03/10 17:00:58;;;;;;;;;;;8.94;11.00;;;;;;2668831;76;20465;-90
2023/03/10 17:04:27;;;;;;;;;;;8.94;10.11;;;;;;2670242;76;20437;-91
2023/03/10 17:08:01;;;;;;;;;;;8.95;9.14;;;;;;2670794;76;20433;-90
2023/03/10 17:11:24;;;;;;;;;;;8.95;9.17;;;;;;2670702;76;20369;-90
2023/03/10 17:14:54;;;;;;;;;;;8.94;8.74;;;;;;2670306;76;20429;-90
2023/03/10 17:18:22;;;;;;;;;;;8.97;8.18;;;;;;2668639;76;20468;-88
2023/03/10 17:21:51;;;;;;;;;;;8.88;7.59;;;;;;2668726;76;20449;-89
2023/03/10 17:25:19;;;;;;;;;;;8.89;7.52;;;;;;2669109;76;20439;-90
2023/03/10 17:28:47;;;;;;;;;;;8.83;6.59;;;;;;2668236;76;20420;-89
2023/03/10 17:32:20;;;;;;;;;;;8.79;4.80;;;;;;2667147;76;20465;-89
2023/03/10 17:35:45;;;;;;;;;;;8.74;3.99;;;;;;2668268;76;20473;-91
2023/03/10 17:39:13;;;;;;;;;;;8.75;3.21;;;;;;2669074;76;20477;-86
2023/03/10 17:42:44;;;;;;;;;;;8.66;3.19;;;;;;2668423;76;20772;-88
2023/03/10 17:46:12;;;;;;;;;;;8.45;4.11;;;;;;2668271;76;20479;-90
2023/03/10 17:49:40;;;;;;;;;;;8.31;5.47;;;;;;2669072;76;20453;-89
2023/03/10 17:53:08;;;;;;;;;;;8.05;8.13;;;;;;2669023;76;21341;-88
2023/03/10 17:56:36;;;;;;;;;;;8.06;8.90;;;;;;2668267;76;20770;-88
2023/03/10 18:00:05;;;;;;;;;;;7.87;9.24;;;;;;2667480;76;20427;-90
2023/03/10 18:03:33;;;;;;;;;;;7.71;9.94;;;;;;2666645;76;20782;-88
2023/03/10 18:07:04;;;;;;;;;;;7.73;10.17;;;;;;2668235;76;20771;-89
2023/03/10 18:10:37;;;;;;;;;;;7.79;9.83;;;;;;2668169;76;20445;-89
2023/03/10 18:14:02;;;;;;;;;;;7.81;9.40;;;;;;2668161;76;20426;-87
2023/03/10 18:17:30;;;;;;;;;;;7.92;7.23;;;;;;2667602;76;20485;-89
2023/03/10 18:20:58;;;;;;;;;;;8.19;6.47;;;;;;2665600;76;20421;-89
2023/03/10 18:24:26;;;;;;;;;;;8.22;5.15;;;;;;2667738;76;20408;-89
2023/03/10 18:27:54;;;;;;;;;;;8.17;4.34;;;;;;2668917;76;20425;-89
2023/03/10 18:31:22;;;;;;;;;;;8.08;4.46;;;;;;2668479;76;20421;-89
2023/03/10 18:34:51;;;;;;;;;;;8.05;4.59;;;;;;2667117;76;20894;-89
2023/03/10 18:38:20;;;;;;;;;;;8.09;4.58;;;;;;2668681;76;20435;-87
2023/03/10 18:41:48;;;;;;;;;;;7.89;5.65;;;;;;2668222;76;20458;-89
2023/03/10 18:45:16;;;;;;;;;;;7.81;6.67;;;;;;2669088;76;20944;-90
2023/03/10 18:48:46;;;;;;;;;;;7.33;9.84;;;;;;2668355;76;20882;-88
2023/03/10 18:52:19;;;;;;;;;;;6.49;20.12;;;;;;2667755;76;20453;-85
2023/03/10 18:55:49;;;;;;;;;;;6.20;20.41;;;;;;2667475;76;20429;-87
2023/03/10 18:59:14;;;;;;;;;;;5.81;20.16;;;;;;2667478;76;20398;-86
2023/03/10 19:02:42;;;;;;;;;;;5.69;21.30;;;;;;2666634;76;20470;-87
2023/03/10 19:06:12;;;;;;;;;;;5.54;19.90;;;;;;2667419;76;20594;-87
2023/03/10 19:09:40;;;;;;;;;;;5.56;19.28;;;;;;2667479;76;20410;-87
2023/03/10 19:13:08;;;;;;;;;;;5.67;18.99;;;;;;2668261;76;20437;-86
2023/03/10 19:16:38;;;;;;;;;;;5.68;18.57;;;;;;2667775;76;20434;-86
2023/03/10 19:20:07;;;;;;;;;;;5.42;21.60;;;;;;2666386;76;20737;-86
2023/03/10 19:23:36;;;;;;;;;;;5.37;22.76;;;;;;2667238;76;20433;-87
2023/03/10 19:27:04;;;;;;;;;;;5.27;23.88;;;;;;2668864;76;20430;-88
2023/03/10 19:30:32;;;;;;;;;;;5.31;24.46;;;;;;2668866;76;20434;-88
2023/03/10 19:34:00;;;;;;;;;;;5.31;23.20;;;;;;2667518;76;20428;-88
2023/03/10 19:37:31;;;;;;;;;;;5.37;22.42;;;;;;2669438;76;20785;-88
2023/03/10 19:41:00;;;;;;;;;;;5.32;21.62;;;;;;2669875;76;21170;-88
2023/03/10 19:44:30;;;;;;;;;;;5.32;21.15;;;;;;2670120;76;20493;-94
2023/03/10 19:47:59;;;;;;;;;;;5.33;20.79;;;;;;2669640;76;20428;-94
2023/03/10 19:51:30;;;;;;;;;;;5.41;21.08;;;;;;2670482;76;20418;-95
2023/03/10 19:55:07;;;;;;;;;;;5.53;21.54;;;;;;2676450;76;20426;-94
2023/03/10 19:58:30;;;;;;;;;;;5.61;21.83;;;;;;2668710;76;20439;-92
2023/03/10 20:05:41;;;;;;;;;;;5.82;21.30;;;;;;2665947;76;20516;-95
2023/03/10 20:09:14;;;;;;;;;;;5.91;21.09;;;;;;2679867;76;20461;-96
2023/03/10 20:12:43;;;;;;;;;;;6.00;20.37;;;;;;2677017;76;20452;-94
2023/03/10 20:16:21;;;;;;;;;;;;;;;;;;;;;
2023/03/10 20:24:02;;;;;;;;;;;6.12;17.32;;;;;;2685313;76;20244;-96
2023/03/10 20:27:50;;;;;;;;;;;6.21;14.99;;;;;;2682327;76;20418;-96
2023/03/10 20:31:15;;;;;;;;;;;6.33;14.52;;;;;;2675055;76;20431;-96
2023/03/10 20:34:46;;;;;;;;;;;6.40;14.23;;;;;;2679587;76;20331;-95
2023/03/10 20:38:16;;;;;;;;;;;6.40;13.13;;;;;;2680613;76;20269;-95
2023/03/10 20:41:44;;;;;;;;;;;6.46;12.78;;;;;;2679476;76;20471;-95
2023/03/10 20:45:12;;;;;;;;;;;6.57;12.47;;;;;;2677841;76;20421;-95
2023/03/10 20:48:40;;;;;;;;;;;6.58;11.69;;;;;;2677835;76;20442;-94